الصفحة الرئيسية
METAR-TAF:

METAR-TAF

مطار :

لاباز, بوليفيا

دائرة عرض: 16-31S, خط طول: 068-11W, ارتفاع: 4058 متر

مراقبة الطقس الحالي

تاريخ ووقت الإصدار 1ساعة و 5 دقيقة قبل الساعة 12:00UTC
ريح 5 عقدة من الشرق/الشمال الشرقي
درجة الحرارة 7°درجة مئوية
الرطوبة 81%
ضغط 1039 hPa
الرؤية: 6000 متر
غيوم قليلة على ارتفاع 300 قدم
غيوم متفرقة على ارتفاع 7000 قدم
غيوم مفككة على ارتفاع 20000 قدم

METAR: SLLP 231200Z 07005KT 6000 FEW003 SCT070 BKN200 07/04 Q1039

زمن: 09:05 (13:05 UTC)

توقعات

تاريخ ووقت الإصدار 2ساعات و 35 دقيقة قبل الساعة 10:30UTC
التوقعات صالحة من23 الساعة 12 UTC إلى 24 الساعة 12 UTC
ريح 5 عقدة من الشرق/الجنوب الشرقي
الرؤية 10 كم أو أكثر
غيوم قليلة على ارتفاع 2000 قدم
مؤقت
من 23 الساعة 17 UTC إلى 23 الساعة 20 UTC
ريح 10 عقدة من الجنوب/الجنوب الشرقي
غيوم قليلة على ارتفاع 2000 قدم, مزنة ركامية.
أصبح
من 24 الساعة 05 UTC إلى 24 الساعة 08 UTC
الرؤية: 3000 متر
غيوم قليلة على ارتفاع 200 قدم
ضباب بالجوار

TAF: SLLP 231030Z 2312/2412 11005KT 9999 FEW020 TX16/2320Z TN03/2410Z TEMPO 2317/2320 15010KT FEW020CB BECMG 2405/2408 3000E VCFG FEW002

أرصاد الطقس والتوقعات من أكثر من 4000 مطار (تقارير الطقس للمطار METAR والتنبؤ بالطقس بالمطارTAF).

المحطات المتاحة هي النقط الصفراء والحمراء على الخريطة.

حرك المؤشر فوق النقطة لمعرفة اسم المحطة.

ثم انقر لمعرفة أرصاد وتوقعات الطقس.

لتغيير الخارطة: اضغط على الأزرار الخضراء مع رمز الصليب الأسود للتكبير. على الزر الأخضر مع شرطة للتصغير، أو على الأسهم الخضراء للخرائط المجاورة.


METAR-TAF: